createdAt,value
2023-09-02T00:01:53.009Z,101619.38
2023-09-02T00:04:19.489Z,101619.75
2023-09-02T00:06:45.988Z,101615.44
2023-09-02T00:09:13.737Z,101604.72
2023-09-02T00:11:40.235Z,101608.53
2023-09-02T00:14:06.742Z,101593.31
2023-09-02T00:16:33.181Z,101603.28
2023-09-02T00:18:59.639Z,101597.50
2023-09-02T00:21:26.086Z,101601.50
2023-09-02T00:24:02.131Z,101598.41
2023-09-02T00:26:29.345Z,101596.25
2023-09-02T00:28:55.757Z,101595.13
2023-09-02T00:31:22.247Z,101588.53
2023-09-02T00:33:48.806Z,101588.91
2023-09-02T00:36:15.409Z,101587.41
2023-09-02T00:38:42.354Z,101594.56
2023-09-02T00:41:27.890Z,101586.75
2023-09-02T00:43:55.492Z,101591.75
2023-09-02T00:46:22.786Z,101609.69
2023-09-02T00:48:49.437Z,101603.25
2023-09-02T00:51:15.957Z,101612.19
2023-09-02T00:53:42.367Z,101609.91
2023-09-02T00:56:08.834Z,101610.59
2023-09-02T00:58:36.758Z,101615.06
2023-09-02T01:01:04.507Z,101610.75
2023-09-02T01:03:31.348Z,101608.44
2023-09-02T01:05:59.186Z,101593.38
2023-09-02T01:08:27.137Z,101603.34
2023-09-02T01:10:54.610Z,101608.81
2023-09-02T01:13:21.308Z,101601.50
2023-09-02T01:15:47.748Z,101611.31
2023-09-02T01:18:14.245Z,101609.13
2023-09-02T01:20:46.625Z,101612.97
2023-09-02T01:23:16.231Z,101617.97
2023-09-02T01:26:15.060Z,101622.09
2023-09-02T01:28:44.154Z,101621.75
2023-09-02T01:31:13.899Z,101618.94
2023-09-02T01:33:42.164Z,101620.72
2023-09-02T01:36:14.054Z,101617.25
2023-09-02T01:38:41.839Z,101623.88
2023-09-02T01:41:10.878Z,101618.25
2023-09-02T01:43:38.636Z,101624.53
2023-09-02T01:46:06.875Z,101623.53
2023-09-02T01:48:34.585Z,101618.72
2023-09-02T01:51:02.374Z,101623.00
2023-09-02T01:53:30.390Z,101631.97
2023-09-02T01:55:58.090Z,101627.66
2023-09-02T01:58:24.756Z,101626.50
2023-09-02T02:00:51.363Z,101631.63
2023-09-02T02:03:34.469Z,101624.50
2023-09-02T02:06:01.785Z,101629.34
2023-09-02T02:08:59.208Z,101633.28
2023-09-02T02:11:30.047Z,101631.63
2023-09-02T02:14:04.252Z,101630.81
2023-09-02T02:16:31.992Z,101642.88
2023-09-02T02:19:00.196Z,101640.88
2023-09-02T02:21:30.637Z,101639.91
2023-09-02T02:23:58.258Z,101648.19
2023-09-02T02:26:24.865Z,101645.38
2023-09-02T02:28:51.302Z,101645.03
2023-09-02T02:31:17.777Z,101646.34
2023-09-02T02:33:44.205Z,101649.00
2023-09-02T02:36:12.209Z,101643.53
2023-09-02T02:38:38.638Z,101648.47
2023-09-02T02:41:05.036Z,101635.03
2023-09-02T02:43:31.556Z,101636.88
2023-09-02T02:45:58.337Z,101638.66
2023-09-02T02:48:31.031Z,101640.16
2023-09-02T02:50:58.390Z,101650.78
2023-09-02T02:53:25.330Z,101656.59
2023-09-02T02:55:52.054Z,101656.09
2023-09-02T02:58:18.519Z,101651.78
2023-09-02T03:00:45.824Z,101657.72
2023-09-02T03:03:12.419Z,101648.44
2023-09-02T03:05:42.010Z,101650.78
2023-09-02T03:08:09.804Z,101648.13
2023-09-02T03:10:36.981Z,101650.78
2023-09-02T03:13:04.430Z,101648.13
2023-09-02T03:15:31.120Z,101651.41
2023-09-02T03:17:57.671Z,101650.41
2023-09-02T03:20:24.415Z,101647.09
2023-09-02T03:22:50.946Z,101650.22
2023-09-02T03:25:17.404Z,101643.28
2023-09-02T03:27:43.865Z,101657.69
2023-09-02T03:30:10.726Z,101655.84
2023-09-02T03:32:37.228Z,101652.38
2023-09-02T03:35:05.540Z,101642.91
2023-09-02T03:37:32.033Z,101654.03
2023-09-02T03:39:58.555Z,101653.38
2023-09-02T03:42:25.080Z,101658.50
2023-09-02T03:44:51.812Z,101660.50
2023-09-02T03:47:18.328Z,101654.38
2023-09-02T03:49:44.853Z,101670.31
2023-09-02T03:52:11.301Z,101668.66
2023-09-02T03:54:38.740Z,101666.69
2023-09-02T03:57:06.605Z,101673.63
2023-09-02T03:59:33.069Z,101682.94
2023-09-02T04:01:59.453Z,101680.09
2023-09-02T04:04:27.054Z,101675.97
2023-09-02T04:06:53.497Z,101685.28
2023-09-02T04:09:19.922Z,101684.91
2023-09-02T04:11:46.382Z,101680.63
2023-09-02T04:14:12.865Z,101675.47
2023-09-02T04:16:39.637Z,101669.34
2023-09-02T04:19:06.223Z,101676.50
2023-09-02T04:21:33.127Z,101680.78
2023-09-02T04:23:59.654Z,101676.28
2023-09-02T04:26:26.202Z,101677.16
2023-09-02T04:28:56.715Z,101674.47
2023-09-02T04:31:23.843Z,101685.28
2023-09-02T04:33:50.333Z,101691.09
2023-09-02T04:36:16.831Z,101687.59
2023-09-02T04:38:43.303Z,101692.75
2023-09-02T04:41:09.852Z,101685.13
2023-09-02T04:43:36.494Z,101694.59
2023-09-02T04:46:03.673Z,101692.91
2023-09-02T04:48:30.373Z,101694.06
2023-09-02T04:50:57.785Z,101701.88
2023-09-02T04:53:24.360Z,101698.06
2023-09-02T04:55:51.722Z,101704.19
2023-09-02T04:58:19.596Z,101714.47
2023-09-02T05:00:46.141Z,101709.97
2023-09-02T05:03:12.703Z,101705.84
2023-09-02T05:05:39.174Z,101715.13
2023-09-02T05:08:05.789Z,101718.94
2023-09-02T05:10:32.261Z,101721.78
2023-09-02T05:12:58.692Z,101722.75
2023-09-02T05:15:25.271Z,101718.31
2023-09-02T05:17:52.175Z,101728.06
2023-09-02T05:20:18.638Z,101730.91
2023-09-02T05:22:45.414Z,101725.25
2023-09-02T05:25:11.898Z,101727.75
2023-09-02T05:27:40.021Z,101721.41
2023-09-02T05:30:07.414Z,101726.56
2023-09-02T05:32:33.991Z,101726.22
2023-09-02T05:35:00.450Z,101728.72
2023-09-02T05:37:26.952Z,101724.88
2023-09-02T05:39:53.473Z,101733.66
2023-09-02T05:42:19.905Z,101739.63
2023-09-02T05:44:46.421Z,101741.09
2023-09-02T05:47:14.276Z,101742.75
2023-09-02T05:49:41.128Z,101751.53
2023-09-02T05:52:07.668Z,101755.69
2023-09-02T05:54:34.297Z,101755.03
2023-09-02T05:57:01.264Z,101762.66
2023-09-02T05:59:27.738Z,101774.09
2023-09-02T06:01:56.224Z,101765.63
2023-09-02T06:04:22.676Z,101767.25
2023-09-02T06:06:49.102Z,101761.44
2023-09-02T06:09:15.532Z,101756.78
2023-09-02T06:11:41.949Z,101756.59
2023-09-02T06:14:08.368Z,101762.56
2023-09-02T06:16:34.883Z,101760.22
2023-09-02T06:19:01.335Z,101758.03
2023-09-02T06:21:27.853Z,101755.03
2023-09-02T06:23:54.311Z,101772.78
2023-09-02T06:26:20.756Z,101765.97
2023-09-02T06:28:47.861Z,101763.13
2023-09-02T06:31:14.480Z,101773.59
2023-09-02T06:33:40.943Z,101785.03
2023-09-02T06:36:11.855Z,101787.69
2023-09-02T06:38:38.519Z,101793.34
2023-09-02T06:41:16.094Z,101793.47
2023-09-02T06:43:43.243Z,101804.28
2023-09-02T06:46:17.764Z,101817.22
2023-09-02T06:48:45.488Z,101812.72
2023-09-02T06:51:12.438Z,101817.88
2023-09-02T06:53:42.570Z,101823.53
2023-09-02T06:56:10.027Z,101836.69
2023-09-02T06:58:38.528Z,101840.66
2023-09-02T07:01:04.949Z,101845.47
2023-09-02T07:03:31.515Z,101850.78
2023-09-02T07:06:08.107Z,101853.28
2023-09-02T07:08:34.936Z,101853.09
2023-09-02T07:11:01.377Z,101855.56
2023-09-02T07:13:27.895Z,101854.91
2023-09-02T07:16:01.137Z,101863.22
2023-09-02T07:18:27.713Z,101866.53
2023-09-02T07:20:58.857Z,101868.00
2023-09-02T07:23:25.463Z,101870.66
2023-09-02T07:25:51.893Z,101875.97
2023-09-02T07:28:18.338Z,101888.91
2023-09-02T07:30:44.946Z,101884.25
2023-09-02T07:33:11.484Z,101879.44
2023-09-02T07:35:39.157Z,101880.72
2023-09-02T07:38:06.079Z,101883.03
2023-09-02T07:40:32.603Z,101894.13
2023-09-02T07:43:01.353Z,101886.50
2023-09-02T07:45:27.898Z,101896.78
2023-09-02T07:47:54.901Z,101902.41
2023-09-02T07:50:21.804Z,101894.25
2023-09-02T07:52:49.416Z,101902.56
2023-09-02T07:55:18.322Z,101903.88
2023-09-02T07:57:45.247Z,101905.84
2023-09-02T08:00:12.137Z,101923.94
2023-09-02T08:02:38.660Z,101928.13
2023-09-02T08:05:05.511Z,101933.28
2023-09-02T08:07:32.968Z,101938.88
2023-09-02T08:09:59.564Z,101943.69
2023-09-02T08:12:25.988Z,101951.94
2023-09-02T08:14:52.441Z,101954.09
2023-09-02T08:17:20.765Z,101949.72
2023-09-02T08:19:48.020Z,101957.84
2023-09-02T08:22:14.764Z,101951.38
2023-09-02T08:24:42.876Z,101948.19
2023-09-02T08:27:09.864Z,101941.66
2023-09-02T08:29:36.340Z,101944.97
2023-09-02T08:32:02.850Z,101941.81
2023-09-02T08:34:29.717Z,101943.09
2023-09-02T08:36:56.185Z,101945.41
2023-09-02T08:39:22.642Z,101948.34
2023-09-02T08:41:50.588Z,101945.16
2023-09-02T08:44:18.959Z,101942.25
2023-09-02T08:46:47.112Z,101935.72
2023-09-02T08:49:15.674Z,101930.13
2023-09-02T08:51:43.910Z,101926.19
2023-09-02T08:54:11.655Z,101924.44
2023-09-02T08:56:42.566Z,101922.25
2023-09-02T08:59:13.799Z,101927.13
2023-09-02T09:01:45.460Z,101932.53
2023-09-02T09:04:15.594Z,101926.50
2023-09-02T09:06:42.843Z,101921.16
2023-09-02T09:09:10.889Z,101920.69
2023-09-02T09:11:39.904Z,101924.19
2023-09-02T09:14:11.036Z,101926.38
2023-09-02T09:16:40.223Z,101939.88
2023-09-02T09:19:07.829Z,101947.16
2023-09-02T09:21:36.138Z,101961.97
2023-09-02T09:24:04.238Z,101962.41
2023-09-02T09:26:32.312Z,101969.31
2023-09-02T09:29:00.394Z,101977.41
2023-09-02T09:31:30.024Z,101981.34
2023-09-02T09:34:02.768Z,101979.84
2023-09-02T09:36:31.318Z,101990.75
2023-09-02T09:39:03.442Z,101993.84
2023-09-02T09:41:31.228Z,101991.28
2023-09-02T09:44:18.636Z,101986.91
2023-09-02T09:46:45.074Z,101990.38
2023-09-02T09:49:33.385Z,101993.72
2023-09-02T09:52:02.737Z,101982.59
2023-09-02T09:54:42.836Z,101997.06
2023-09-02T09:57:12.583Z,101990.53
2023-09-02T09:59:39.202Z,101998.25
2023-09-02T10:02:06.935Z,101996.38
2023-09-02T10:04:34.673Z,102000.66
2023-09-02T10:07:02.289Z,102005.22
2023-09-02T10:09:44.007Z,102014.06
2023-09-02T10:12:14.956Z,102015.50
2023-09-02T10:14:49.274Z,102011.00
2023-09-02T10:17:16.772Z,102015.94
2023-09-02T10:19:47.025Z,102017.69
2023-09-02T10:22:21.081Z,102020.75
2023-09-02T10:25:07.935Z,102026.75
2023-09-02T10:27:41.653Z,102020.56
2023-09-02T10:30:16.095Z,102030.03
2023-09-02T10:32:46.272Z,102031.72
2023-09-02T10:35:18.615Z,102033.56
2023-09-02T10:37:52.591Z,102039.72
2023-09-02T10:40:28.648Z,102042.25
2023-09-02T10:42:56.239Z,102043.66
2023-09-02T10:45:23.511Z,102047.56
2023-09-02T10:47:51.513Z,102031.63
2023-09-02T10:50:19.215Z,102048.13
2023-09-02T10:52:49.839Z,102048.50
2023-09-02T10:55:23.804Z,102048.13
2023-09-02T10:57:57.402Z,102049.78
2023-09-02T11:00:30.233Z,102051.16
2023-09-02T11:03:00.307Z,102055.69
2023-09-02T11:05:29.268Z,102055.50
2023-09-02T11:07:56.676Z,102051.34
2023-09-02T11:10:53.583Z,102064.50
2023-09-02T11:13:21.431Z,102061.41
2023-09-02T11:16:17.862Z,102057.13
2023-09-02T11:18:44.603Z,102060.41
2023-09-02T11:21:12.164Z,102048.13
2023-09-02T11:23:39.846Z,102054.38
2023-09-02T11:26:07.921Z,102051.75
2023-09-02T11:28:36.569Z,102054.63
2023-09-02T11:31:08.161Z,102056.31
2023-09-02T11:33:35.591Z,102058.03
2023-09-02T11:36:13.861Z,102055.16
2023-09-02T11:38:40.512Z,102054.97
2023-09-02T11:41:09.328Z,102056.34
2023-09-02T11:43:38.446Z,102052.06
2023-09-02T11:46:05.205Z,102060.13
2023-09-02T11:48:32.141Z,102067.34
2023-09-02T11:50:59.893Z,102070.84
2023-09-02T11:53:30.935Z,102074.06
2023-09-02T11:55:58.180Z,102067.56
2023-09-02T11:58:24.989Z,102076.22
2023-09-02T12:00:51.612Z,102073.78
2023-09-02T12:03:26.240Z,102079.50
2023-09-02T12:05:55.347Z,102074.53
2023-09-02T12:08:23.402Z,102068.78
2023-09-02T12:10:51.510Z,102089.19
2023-09-02T12:13:20.622Z,102088.59
2023-09-02T12:15:51.329Z,102092.88
2023-09-02T12:18:18.732Z,102090.19
2023-09-02T12:20:46.918Z,102099.03
2023-09-02T12:23:14.018Z,102094.91
2023-09-02T12:25:41.922Z,102091.66
2023-09-02T12:28:15.944Z,102099.28
2023-09-02T12:30:49.315Z,102097.25
2023-09-02T12:33:17.577Z,102097.91
2023-09-02T12:35:50.902Z,102106.44
2023-09-02T12:38:19.516Z,102104.66
2023-09-02T12:40:53.614Z,102117.72
2023-09-02T12:43:30.045Z,102123.50
2023-09-02T12:45:57.701Z,102122.94
2023-09-02T12:48:25.038Z,102124.84
2023-09-02T12:50:51.644Z,102125.28
2023-09-02T12:53:18.382Z,102132.91
2023-09-02T12:55:46.213Z,102118.69
2023-09-02T12:58:13.134Z,102116.59
2023-09-02T13:00:39.610Z,102121.75
2023-09-02T13:03:06.345Z,102120.09
2023-09-02T13:05:33.210Z,102126.09
2023-09-02T13:08:00.181Z,102128.56
2023-09-02T13:10:26.880Z,102118.88
2023-09-02T13:12:54.635Z,102114.53
2023-09-02T13:15:26.086Z,102112.91
2023-09-02T13:17:52.927Z,102103.22
2023-09-02T13:20:20.103Z,102100.94
2023-09-02T13:22:48.253Z,102097.22
2023-09-02T13:25:17.091Z,102103.81
2023-09-02T13:27:43.861Z,102093.09
2023-09-02T13:30:11.622Z,102095.53
2023-09-02T13:32:40.109Z,102102.59
2023-09-02T13:35:15.180Z,102100.31
2023-09-02T13:37:48.431Z,102099.47
2023-09-02T13:40:20.867Z,102099.81
2023-09-02T13:42:48.518Z,102090.97
2023-09-02T13:45:14.966Z,102093.00
2023-09-02T13:47:51.100Z,102093.50
2023-09-02T13:50:19.435Z,102094.06
2023-09-02T13:52:51.781Z,102099.25
2023-09-02T13:55:19.239Z,102104.78
2023-09-02T13:57:45.989Z,102107.00
2023-09-02T14:00:33.273Z,102101.97
2023-09-02T14:03:01.166Z,102108.22
2023-09-02T14:05:27.823Z,102116.16
2023-09-02T14:08:04.103Z,102113.09
2023-09-02T14:10:32.630Z,102112.13
2023-09-02T14:13:09.589Z,102112.44
2023-09-02T14:15:36.882Z,102108.75
2023-09-02T14:18:03.678Z,102108.16
2023-09-02T14:20:30.168Z,102110.63
2023-09-02T14:22:56.597Z,102094.84
2023-09-02T14:25:23.098Z,102096.94
2023-09-02T14:27:49.637Z,102096.94
2023-09-02T14:30:16.424Z,102104.44
2023-09-02T14:32:42.991Z,102107.19
2023-09-02T14:35:09.664Z,102111.50
2023-09-02T14:37:36.233Z,102104.91
2023-09-02T14:40:04.856Z,102103.66
2023-09-02T14:42:34.846Z,102118.28
2023-09-02T14:45:03.532Z,102117.50
2023-09-02T14:47:30.136Z,102120.94
2023-09-02T14:49:56.835Z,102115.75
2023-09-02T14:52:23.829Z,102112.75
2023-09-02T14:54:50.940Z,102115.41
2023-09-02T14:57:18.018Z,102114.41
2023-09-02T14:59:49.129Z,102113.13
2023-09-02T15:02:37.409Z,102102.50
2023-09-02T15:05:27.246Z,102102.19
2023-09-02T15:08:00.147Z,102098.75
2023-09-02T15:10:28.076Z,102114.31
2023-09-02T15:12:56.153Z,102108.72
2023-09-02T15:15:25.646Z,102107.53
2023-09-02T15:17:52.793Z,102108.44
2023-09-02T15:20:27.034Z,102112.63
2023-09-02T15:22:55.811Z,102112.34
2023-09-02T15:25:26.206Z,102106.78
2023-09-02T15:27:57.437Z,102111.19
2023-09-02T15:30:30.242Z,102116.34
2023-09-02T15:32:58.210Z,102118.88
2023-09-02T15:35:25.022Z,102122.81
2023-09-02T15:37:51.599Z,102120.56
2023-09-02T15:40:28.756Z,102123.03
2023-09-02T15:43:03.784Z,102115.44
2023-09-02T15:45:30.711Z,102117.81
2023-09-02T15:47:57.413Z,102108.97
2023-09-02T15:50:24.069Z,102120.09
2023-09-02T15:52:52.233Z,102120.41
2023-09-02T15:55:20.040Z,102119.25
2023-09-02T15:57:46.461Z,102126.63
2023-09-02T16:00:13.233Z,102126.63
2023-09-02T16:02:40.099Z,102120.81
2023-09-02T16:05:07.119Z,102118.72
2023-09-02T16:07:33.592Z,102127.78
2023-09-02T16:10:00.012Z,102134.84
2023-09-02T16:12:26.476Z,102140.94
2023-09-02T16:14:52.916Z,102139.31
2023-09-02T16:17:23.090Z,102131.97
2023-09-02T16:19:50.273Z,102135.94
2023-09-02T16:22:18.072Z,102139.44
2023-09-02T16:24:44.686Z,102140.94
2023-09-02T16:27:11.145Z,102148.63
2023-09-02T16:29:38.326Z,102143.56
2023-09-02T16:32:06.294Z,102149.44
2023-09-02T16:34:34.590Z,102150.56
2023-09-02T16:37:02.028Z,102159.56
2023-09-02T16:39:28.784Z,102155.56
2023-09-02T16:41:55.356Z,102163.03
2023-09-02T16:44:21.851Z,102160.97
2023-09-02T16:46:51.031Z,102157.28
2023-09-02T16:49:19.228Z,102162.13
2023-09-02T16:51:45.618Z,102165.09
2023-09-02T16:54:12.436Z,102170.72
2023-09-02T16:56:38.934Z,102174.06
2023-09-02T16:59:05.370Z,102172.09
2023-09-02T17:01:31.920Z,102174.22
2023-09-02T17:03:59.063Z,102178.22
2023-09-02T17:06:30.036Z,102177.59
2023-09-02T17:08:56.938Z,102178.41
2023-09-02T17:11:24.066Z,102178.22
2023-09-02T17:13:51.257Z,102181.34
2023-09-02T17:16:18.100Z,102184.88
2023-09-02T17:18:44.798Z,102191.47
2023-09-02T17:21:14.422Z,102190.25
2023-09-02T17:23:41.269Z,102189.22
2023-09-02T17:26:07.724Z,102185.53
2023-09-02T17:28:34.264Z,102191.31
2023-09-02T17:31:07.320Z,102190.66
2023-09-02T17:33:35.432Z,102197.69
2023-09-02T17:36:02.266Z,102199.09
2023-09-02T17:38:28.809Z,102208.97
2023-09-02T17:40:55.641Z,102210.19
2023-09-02T17:43:22.103Z,102214.47
2023-09-02T17:45:48.565Z,102212.00
2023-09-02T17:48:15.239Z,102205.19
2023-09-02T17:50:41.807Z,102211.50
2023-09-02T17:53:08.400Z,102216.19
2023-09-02T17:55:35.060Z,102221.53
2023-09-02T17:58:05.310Z,102216.91
2023-09-02T18:00:32.465Z,102214.41
2023-09-02T18:03:01.021Z,102215.84
2023-09-02T18:05:27.622Z,102220.13
2023-09-02T18:07:54.029Z,102218.84
2023-09-02T18:10:20.773Z,102224.53
2023-09-02T18:12:47.163Z,102226.47
2023-09-02T18:15:13.606Z,102228.03
2023-09-02T18:17:40.209Z,102234.53
2023-09-02T18:20:07.684Z,102243.34
2023-09-02T18:22:34.339Z,102245.72
2023-09-02T18:27:27.607Z,102248.38
2023-09-02T18:29:54.008Z,102247.84
2023-09-02T18:32:20.507Z,102258.66
2023-09-02T18:34:46.944Z,102261.78
2023-09-02T18:37:13.802Z,102261.06
2023-09-02T18:39:40.403Z,102266.91
2023-09-02T18:42:07.581Z,102276.94
2023-09-02T18:44:34.169Z,102275.75
2023-09-02T18:47:00.651Z,102273.00
2023-09-02T18:49:27.098Z,102281.75
2023-09-02T18:51:53.620Z,102282.66
2023-09-02T18:54:21.178Z,102279.19
2023-09-02T18:56:47.589Z,102286.66
2023-09-02T18:59:14.083Z,102287.16
2023-09-02T19:01:40.744Z,102283.94
2023-09-02T19:04:09.191Z,102286.53
2023-09-02T19:06:36.634Z,102281.56
2023-09-02T19:09:03.665Z,102279.97
2023-09-02T19:11:31.037Z,102285.72
2023-09-02T19:13:57.888Z,102285.09
2023-09-02T19:16:25.712Z,102287.09
2023-09-02T19:18:53.073Z,102287.81
2023-09-02T19:21:19.618Z,102284.66
2023-09-02T19:23:46.637Z,102290.06
2023-09-02T19:26:14.932Z,102292.72
2023-09-02T19:28:41.717Z,102293.59
2023-09-02T19:31:10.902Z,102297.94
2023-09-02T19:33:37.413Z,102301.84
2023-09-02T19:36:04.128Z,102302.38
2023-09-02T19:38:30.633Z,102311.06
2023-09-02T19:40:57.071Z,102319.72
2023-09-02T19:43:24.613Z,102315.59
2023-09-02T19:45:51.143Z,102312.44
2023-09-02T19:48:17.813Z,102320.09
2023-09-02T19:50:44.826Z,102317.59
2023-09-02T19:53:12.594Z,102321.44
2023-09-02T19:55:46.446Z,102323.25
2023-09-02T19:58:14.735Z,102324.09
2023-09-02T20:00:45.353Z,102333.44
2023-09-02T20:03:16.905Z,102340.75
2023-09-02T20:05:44.931Z,102334.75
2023-09-02T20:08:11.572Z,102330.09
2023-09-02T20:10:38.072Z,102342.44
2023-09-02T20:13:04.678Z,102341.91
2023-09-02T20:15:31.155Z,102341.59
2023-09-02T20:17:58.139Z,102346.22
2023-09-02T20:20:26.754Z,102346.59
2023-09-02T20:22:53.635Z,102348.53
2023-09-02T20:25:20.095Z,102341.91
2023-09-02T20:27:46.559Z,102350.53
2023-09-02T20:30:13.517Z,102356.34
2023-09-02T20:32:40.063Z,102369.00
2023-09-02T20:35:07.071Z,102377.94
2023-09-02T20:37:33.612Z,102379.56
2023-09-02T20:40:00.067Z,102381.88
2023-09-02T20:42:26.590Z,102389.19
2023-09-02T20:44:53.950Z,102392.41
2023-09-02T20:47:20.442Z,102389.19
2023-09-02T20:49:46.865Z,102394.00
2023-09-02T20:52:13.416Z,102390.53
2023-09-02T20:54:39.978Z,102385.34
2023-09-02T20:57:06.397Z,102398.66
2023-09-02T20:59:32.824Z,102392.00
2023-09-02T21:01:59.336Z,102393.34
2023-09-02T21:04:25.795Z,102399.31
2023-09-02T21:06:52.259Z,102401.16
2023-09-02T21:09:18.716Z,102401.16
2023-09-02T21:11:45.120Z,102411.78
2023-09-02T21:14:11.595Z,102406.00
2023-09-02T21:16:38.263Z,102405.31
2023-09-02T21:19:04.794Z,102411.47
2023-09-02T21:21:31.457Z,102419.13
2023-09-02T21:24:03.467Z,102415.78
2023-09-02T21:26:30.009Z,102406.97
2023-09-02T21:28:56.470Z,102413.78
2023-09-02T21:31:23.110Z,102416.06
2023-09-02T21:33:54.811Z,102417.59
2023-09-02T21:36:21.693Z,102420.41
2023-09-02T21:38:49.390Z,102424.69
2023-09-02T21:41:15.808Z,102420.69
2023-09-02T21:43:42.514Z,102426.50
2023-09-02T21:46:10.750Z,102421.84
2023-09-02T21:48:37.972Z,102440.25
2023-09-02T21:51:10.437Z,102441.25
2023-09-02T21:53:40.310Z,102444.53
2023-09-02T21:56:10.940Z,102444.69
2023-09-02T21:58:37.562Z,102445.72
2023-09-02T22:01:05.437Z,102451.69
2023-09-02T22:03:40.172Z,102448.66
2023-09-02T22:06:11.559Z,102447.84
2023-09-02T22:08:46.916Z,102454.78
2023-09-02T22:11:14.641Z,102474.66
2023-09-02T22:13:43.390Z,102479.66
2023-09-02T22:16:17.065Z,102480.81
2023-09-02T22:18:56.245Z,102489.44
2023-09-02T22:21:26.836Z,102485.44
2023-09-02T22:23:53.286Z,102490.06
2023-09-02T22:26:19.744Z,102492.06
2023-09-02T22:28:46.224Z,102497.84
2023-09-02T22:31:12.713Z,102500.94
2023-09-02T22:33:39.204Z,102500.41
2023-09-02T22:36:05.735Z,102504.38
2023-09-02T22:38:53.467Z,102498.84
2023-09-02T22:41:21.114Z,102501.31
2023-09-02T22:43:47.555Z,102497.97
2023-09-02T22:46:14.171Z,102496.06
2023-09-02T22:48:40.817Z,102490.06
2023-09-02T22:51:07.710Z,102487.41
2023-09-02T22:53:34.948Z,102487.03
2023-09-02T22:56:09.045Z,102487.31
2023-09-02T22:58:35.492Z,102489.47
2023-09-02T23:01:05.285Z,102495.91
2023-09-02T23:03:32.410Z,102486.03
2023-09-02T23:06:10.949Z,102489.16
2023-09-02T23:08:38.453Z,102493.56
2023-09-02T23:11:04.917Z,102489.53
2023-09-02T23:13:31.404Z,102480.06
2023-09-02T23:16:03.095Z,102487.19
2023-09-02T23:18:29.618Z,102478.75
2023-09-02T23:20:57.268Z,102474.72
2023-09-02T23:23:23.755Z,102475.41
2023-09-02T23:25:53.908Z,102482.09
2023-09-02T23:28:21.615Z,102485.56
2023-09-02T23:30:56.556Z,102489.91
2023-09-02T23:33:23.238Z,102489.22
2023-09-02T23:35:56.543Z,102488.53
2023-09-02T23:38:26.938Z,102488.69
2023-09-02T23:40:55.261Z,102487.16
2023-09-02T23:43:22.798Z,102488.00
2023-09-02T23:45:50.484Z,102494.44
2023-09-02T23:48:18.555Z,102491.09
2023-09-02T23:50:51.538Z,102494.88
2023-09-02T23:53:18.418Z,102500.34
2023-09-02T23:55:46.639Z,102495.31
2023-09-02T23:58:13.080Z,102492.13
